AirNav   ProFlight Series 2 Aviation Headset
 
 961 users online  

05MI Oakwood Heritage Hospital Heliport
Taylor, Michigan, USA

GOING TO TAYLOR?


FAA INFORMATION EFFECTIVE 18 JUNE 2020

Location

FAA Identifier: 05MI
Lat/Long: 42-14-11.0000N 083-16-35.0000W
42-14.183333N 083-16.583333W
42.2363889,-83.2763889
(estimated)
Elevation: 621 ft. / 189 m (estimated)
From city: 1 mile SW of TAYLOR, MI
Time zone: UTC -4 (UTC -5 during Standard Time)
Zip code: 48180

Heliport Operations

Heliport use: Private use. Permission required prior to landing
Activation date: 01/2011
Control tower: no
ARTCC: CLEVELAND CENTER
FSS: LANSING FLIGHT SERVICE STATION
Attendance: UNATNDD
Wind indicator: yes
Segmented circle: no

Heliport Communications

WX ASOS at DTW (4 nm SW): 133.675 (734-955-5015)
WX AWOS-3 at ONZ (10 nm SE): 119.675 (734-692-9686)
WX ASOS at YIP (11 nm W): PHONE 734-961-6843
WX ASOS at DET (16 nm NE): PHONE 313-371-9696
WX AWOS-3 at VLL (19 nm N): 119.475 (248-288-4649)
WX AWOS-3 at TTF (19 nm S): 119.075 (734-384-0259)

Nearby radio navigation aids

VOR radial/distance  VOR name  Freq  Var
DXOr077/4.2DETROIT VOR/DME113.4006W
CRLr038/13.9CARLETON VOR/DME115.7003W
SVMr129/17.5SALEM VORTAC114.3003W

 
NDB name  Hdg/Dist  Freq  Var  ID
GROSSE ILE333/9.841907WRYS .-. -.-- ...
TECUMSEH072/29.723906WTCU - -.-. ..-

Heliport Services

Runway Information

Helipad H1

Dimensions: 42 x 30 ft. / 13 x 9 m
Surface: concrete, in fair condition
Runway edge lights: PERI
Traffic pattern: leftleft

Heliport Ownership and Management from official FAA records

Ownership: Privately-owned
Owner: OAKWOOD HERITAGE HOSPITAL
10000 TELEGRAPH RD
TAYLOR, MI 48180
Phone 313-295-5000
Manager: WILLIAM LEAVENS
10000 TELEGRAPH RD
TAYLOR, MI 48180
Phone (313) 375-7069
DIRECTOR OF SECURITY / SAFETY

Additional Remarks

+175' UNLIT TOWER 594 FT NW OF HELIPORT.
FOR CD CTC DETROIT APCH AT 800-499-8181.

Instrument Procedures

There are no published instrument procedures at 05MI.

Some nearby airports with instrument procedures:

KDTW - Detroit Metropolitan Wayne County Airport (4 nm SW)
KONZ - Grosse Ile Municipal Airport (10 nm SE)
1D2 - Canton-Plymouth-Mettetal Airport (10 nm NW)
KYIP - Willow Run Airport (11 nm W)
KDET - Coleman A Young Municipal Airport (16 nm NE)
KVLL - Oakland/Troy Airport (19 nm N)
KTTF - Custer Airport (19 nm S)
 
Loc | Ops | Rwys | IFR | FBO | Links
Com | Nav | Svcs | Stats | Notes
Aerial photo
No photo
 
Sectional chart

 
Airport distance calculator
Flying to Oakwood Heritage Hospital Heliport? Find the distance to fly.

From to 05MI

Sunrise and sunset
Times for 07-Jul-2020
 Local
(UTC-4)
 Zulu
(UTC)
Morning civil twilight05:3209:32
Sunrise06:0610:06
Sunset21:1101:11
Evening civil twilight21:4501:45

Current date and time
Zulu (UTC)  08-Jul-2020 00:33:42
Local (UTC-4)  07-Jul-2020 20:33:42
 
METAR
KDTW 
3nm W 
080021Z 22018G27KT 2SM R03R/4500VP6000FT TSRA SCT060CB BKN100 OVC220 29/19 A2995 RMK AO2 PK WND 23027/0021 LTG DSNT NE AND E RAB09 TSB08 PRESRR OCNL LTGIC OHD-S TS OHD-S MOV SE CB DSNT E MOV SE T02890189 PNO $
KONZ 
10nm SE 
080016Z AUTO 16007KT 10SM CLR 28/23 A2991 RMK AO2 T02780228
KYIP 
11nm W 
080014Z 06003KT 10SM VCTS FEW100 31/25 A2992 RMK AO2 LTG DSNT NE AND E T03060250
CYQG 
14nm E 
080020Z AUTO 03012G22KT 6SM -TSRA BR BKN065 OVC081 23/21 A2994 RMK LTNG DIST ALQDS RVR MISG SLP136 DENSITY ALT 1700FT
KDET 
15nm NE 
080005Z 05010G27KT 4SM -TSRA BKN021 BKN065 OVC090 24/19 A2993 RMK AO2 PK WND 07027/2357 WSHFT 2341 LTG DSNT E PRESFR P0005 T02390194
KVLL 
19nm N 
080015Z AUTO 00000KT 10SM SCT110 28/19 A2995 RMK AO2 T02770186
KTTF 
19nm S 
080016Z AUTO 18011G15KT 10SM BKN075 BKN090 31/17 A2990 RMK AO2 T03050173
TAF
KDTW 
3nm W 
080025Z 0800/0906 27007KT P6SM VCTS SCT070CB BKN100 TEMPO 0800/0801 22016G24KT 3SM TSRA SCT060CB BKN100 FM080200 27003KT P6SM FEW070 FM080900 VRB03KT P6SM SCT100 FM081600 VRB05KT P6SM SCT060 BKN100 FM082000 16006KT P6SM SCT060 BKN150 FM090000 12003KT P6SM SCT250
KYIP 
11nm W 
071720Z 0718/0818 27007KT P6SM SCT070 TEMPO 0720/0723 6SM -SHRA BKN070 FM080100 27003KT P6SM FEW070 FM080900 VRB03KT P6SM SCT100 FM081600 VRB05KT P6SM SCT060 BKN100
CYQG 
14nm E 
072307Z 0723/0818 24010KT P6SM SCT070 TEMPO 0723/0801 VRB20G40KT 2SM TSRA BR SCT030 BKN060CB FM080200 05006KT P6SM FEW080 BECMG 0804/0805 VRB03KT FM081700 12007KT P6SM BKN060 RMK FCST BASED ON AUTO OBS. NXT FCST BY 080000Z
KDET 
15nm NE 
071720Z 0718/0818 27007KT P6SM SCT070 TEMPO 0720/0723 6SM -SHRA BKN070 FM080100 27003KT P6SM FEW070 FM080900 VRB03KT P6SM SCT100 FM081600 VRB05KT P6SM SCT060 BKN100
NOTAMs
Click for the latest NOTAMs
NOTAMs are issued by the DoD/FAA and will open in a separate window not controlled by AirNav.

 

 
 

Would you like to see your business listed on this page?

 If your business provides an interesting product or service to pilots, flight crews, aircraft, or users of the Oakwood Heritage Hospital Heliport, you should consider listing it here.  To start the listing process, click on the button below
 
Add a business
 

Other Pages about Oakwood Heritage Hospital Heliport

Update a link
 
Copyright © AirNav, LLC. All rights reserved. Privacy Policy  Contact